Du har inga inställningar för hoppväder.nu

Hoppväder.nu

Senast uppdaterat 05:32

UTC-tid

2020-11-26 kl. 04:32


Sol och måne

Solen går upp 8:35 och går ner 14:57 (beräknade cirkatider)
Nästa fullmåne blir om 4 dagar (2020-11-30)

METAR

ESSD (Borlänge)
(12 minuter sedan)
ESSD 260420Z AUTO 24006KT 9999 FEW150/// 04/03 Q1006=



ESOE (Örebro)
(12 minuter sedan)
ESOE 260420Z AUTO 23006KT 9999 UP OVC036/// 08/07 Q1007=



ESOW (Västerås)
(12 minuter sedan)
ESOW 260420Z AUTO 21006KT 7000 -DZ OVC005/// 08/07 Q1007=



ESOK (Karlstad)
(12 minuter sedan)
ESOK 260420Z AUTO 25004KT 9999 FEW093/// BKN100/// 05/05 Q1008=






TAF

ESSD (Borlänge)
ESSD



ESOE (Örebro)
(122 minuter sedan)
ESOE 260230Z 2603/2609 24006KT 9000 -RADZ BKN006 TEMPO 2603/2605 4000 RA BR BKN012 BECMG 2605/2607 NSC=



ESOW (Västerås)
ESOW



ESOK (Karlstad)
ESOK





Kodnycklar till TAF och METAR






LHP

(Borlänge är område se34c i Delområde 1)

Prognos är inte uppdaterad






Preliminär prognos